Time;durP1;ratioP1;P1;durP2;ratioP2;P2;SDS_P1;SDS_P2;PMS_P1;PMS_P2;Temp;Humidity;BMP_temperature;BMP_pressure;BME280_temperature;BME280_humidity;BME280_pressure;Samples;Min_cycle;Max_cycle;Signal;HPM_P1;HPM_P2
2021/10/08 00:02:09;;;;;;;25.80;13.38;;;;;;;;;;5035055;28;20032;-68
2021/10/08 00:04:35;;;;;;;23.00;12.52;;;;;;;;;;5033347;28;20272;-68
2021/10/08 00:07:01;;;;;;;24.30;13.13;;;;;;;;;;5041536;28;20095;-68
2021/10/08 00:09:30;;;;;;;24.50;12.57;;;;;;;;;;5032965;28;20477;-68
2021/10/08 00:11:56;;;;;;;21.13;11.23;;;;;;;;;;5054051;28;20032;-68
2021/10/08 00:14:23;;;;;;;24.88;12.23;;;;;;;;;;5054274;28;20021;-68
2021/10/08 00:16:49;;;;;;;27.48;11.40;;;;;;;;;;5052419;28;20090;-68
2021/10/08 00:19:14;;;;;;;20.52;11.70;;;;;;;;;;5049266;28;20416;-68
2021/10/08 00:21:40;;;;;;;42.17;12.10;;;;;;;;;;5054002;28;20035;-68
2021/10/08 00:24:05;;;;;;;22.77;12.93;;;;;;;;;;5051179;28;20025;-68
2021/10/08 00:26:31;;;;;;;27.48;12.90;;;;;;;;;;5040844;28;20024;-68
2021/10/08 00:28:57;;;;;;;23.90;13.70;;;;;;;;;;5036900;28;20435;-68
2021/10/08 00:31:22;;;;;;;26.80;12.95;;;;;;;;;;5051494;28;20028;-68
2021/10/08 00:33:48;;;;;;;31.67;13.57;;;;;;;;;;5042932;28;20526;-68
2021/10/08 00:36:13;;;;;;;40.40;13.20;;;;;;;;;;5051957;28;20456;-68
2021/10/08 00:38:40;;;;;;;25.83;12.50;;;;;;;;;;5048143;28;20037;-68
2021/10/08 00:41:07;;;;;;;36.63;13.93;;;;;;;;;;5053191;28;20052;-68
2021/10/08 00:43:32;;;;;;;25.40;12.38;;;;;;;;;;5044409;28;20461;-68
2021/10/08 00:45:58;;;;;;;24.70;13.65;;;;;;;;;;5033512;28;20036;-68
2021/10/08 00:48:23;;;;;;;37.13;12.90;;;;;;;;;;5033755;28;20027;-68
2021/10/08 00:50:50;;;;;;;38.42;12.93;;;;;;;;;;5045701;28;20023;-68
2021/10/08 00:53:17;;;;;;;28.83;12.63;;;;;;;;;;5042509;28;20452;-68
2021/10/08 00:55:45;;;;;;;32.17;11.73;;;;;;;;;;5047835;28;20053;-68
2021/10/08 00:58:14;;;;;;;30.13;12.68;;;;;;;;;;5043913;28;20481;-68
2021/10/08 01:00:44;;;;;;;29.55;13.20;;;;;;;;;;5033654;28;20038;-68
2021/10/08 01:03:10;;;;;;;26.25;13.10;;;;;;;;;;5042168;28;20029;-68
2021/10/08 01:05:36;;;;;;;56.80;13.63;;;;;;;;;;5050630;28;20033;-68
2021/10/08 01:08:04;;;;;;;56.75;14.52;;;;;;;;;;5053007;28;20472;-69
2021/10/08 01:10:30;;;;;;;28.75;12.90;;;;;;;;;;5036672;28;20025;-71
2021/10/08 01:12:56;;;;;;;39.95;13.93;;;;;;;;;;5034098;28;20036;-68
2021/10/08 01:15:21;;;;;;;36.40;12.93;;;;;;;;;;5040875;28;20115;-68
2021/10/08 01:17:56;;;;;;;42.15;12.40;;;;;;;;;;5049589;28;20140;-68
2021/10/08 01:20:22;;;;;;;36.60;13.43;;;;;;;;;;5033075;28;20055;-68
2021/10/08 01:22:48;;;;;;;36.72;13.30;;;;;;;;;;5040112;28;20377;-68
2021/10/08 01:25:14;;;;;;;40.38;14.13;;;;;;;;;;5051166;28;20034;-68
2021/10/08 01:27:45;;;;;;;30.70;14.23;;;;;;;;;;5048638;28;20037;-68
2021/10/08 01:30:11;;;;;;;26.17;12.55;;;;;;;;;;5052954;28;20079;-68
2021/10/08 01:32:37;;;;;;;36.63;13.73;;;;;;;;;;5049559;28;20079;-68
2021/10/08 01:35:04;;;;;;;75.18;13.07;;;;;;;;;;5052502;28;20473;-68
2021/10/08 01:37:29;;;;;;;46.88;12.65;;;;;;;;;;5051143;28;20108;-68
2021/10/08 01:39:55;;;;;;;33.42;12.73;;;;;;;;;;5038531;28;20461;-68
2021/10/08 01:42:21;;;;;;;42.75;12.13;;;;;;;;;;5037081;28;20489;-67
2021/10/08 01:44:46;;;;;;;44.65;11.35;;;;;;;;;;5051587;28;20037;-68
2021/10/08 01:47:13;;;;;;;61.30;11.77;;;;;;;;;;5038376;28;20045;-68
2021/10/08 01:49:38;;;;;;;75.53;11.52;;;;;;;;;;5046691;28;20040;-69
2021/10/08 01:52:05;;;;;;;45.17;11.48;;;;;;;;;;5051650;28;20381;-68
2021/10/08 01:54:31;;;;;;;41.28;11.23;;;;;;;;;;5052399;28;20029;-68
2021/10/08 01:56:59;;;;;;;78.65;11.70;;;;;;;;;;5051692;28;20029;-68
2021/10/08 01:59:25;;;;;;;43.85;11.43;;;;;;;;;;5046175;28;20045;-69
2021/10/08 02:01:51;;;;;;;38.92;11.80;;;;;;;;;;5035692;28;20029;-68
2021/10/08 02:04:16;;;;;;;52.30;11.18;;;;;;;;;;5037465;28;20500;-69
2021/10/08 02:06:42;;;;;;;51.45;10.50;;;;;;;;;;5048536;28;20029;-69
2021/10/08 02:09:08;;;;;;;61.30;10.95;;;;;;;;;;5047889;28;20029;-68
2021/10/08 02:11:34;;;;;;;52.25;10.82;;;;;;;;;;5051925;28;20117;-68
2021/10/08 02:14:00;;;;;;;56.67;11.55;;;;;;;;;;5044388;28;20100;-68
2021/10/08 02:16:26;;;;;;;64.95;11.77;;;;;;;;;;5047006;28;20484;-69
2021/10/08 02:18:54;;;;;;;62.17;11.00;;;;;;;;;;5050867;28;20065;-69
2021/10/08 02:21:21;;;;;;;117.95;11.82;;;;;;;;;;5051606;28;20025;-68
2021/10/08 02:23:47;;;;;;;109.53;11.55;;;;;;;;;;5040177;28;20033;-68
2021/10/08 02:26:13;;;;;;;82.03;12.18;;;;;;;;;;5035541;28;20037;-69
2021/10/08 02:28:38;;;;;;;67.40;11.20;;;;;;;;;;5037027;28;20029;-70
2021/10/08 02:31:05;;;;;;;64.47;11.45;;;;;;;;;;5050273;28;20362;-68
2021/10/08 02:33:31;;;;;;;92.70;11.52;;;;;;;;;;5058182;28;20024;-68
2021/10/08 02:35:57;;;;;;;113.20;11.60;;;;;;;;;;5060524;28;20159;-68
2021/10/08 02:38:22;;;;;;;124.18;11.02;;;;;;;;;;5042125;28;20025;-68
2021/10/08 02:40:48;;;;;;;108.13;13.02;;;;;;;;;;5031594;28;20026;-67
2021/10/08 02:43:14;;;;;;;51.72;9.25;;;;;;;;;;5046774;28;20492;-67
2021/10/08 02:45:40;;;;;;;42.78;9.30;;;;;;;;;;5050331;28;20029;-68
2021/10/08 02:48:06;;;;;;;77.45;9.50;;;;;;;;;;5045425;28;20072;-67
2021/10/08 02:50:32;;;;;;;33.95;8.75;;;;;;;;;;5031372;28;20477;-68
2021/10/08 02:52:58;;;;;;;49.78;9.48;;;;;;;;;;5039561;28;20090;-68
2021/10/08 02:55:24;;;;;;;72.65;9.85;;;;;;;;;;5043864;28;20036;-69
2021/10/08 02:57:50;;;;;;;84.93;9.40;;;;;;;;;;5037629;28;20121;-69
2021/10/08 03:00:15;;;;;;;53.83;9.38;;;;;;;;;;5039981;28;20116;-69
2021/10/08 03:02:45;;;;;;;74.60;9.77;;;;;;;;;;5031406;28;20049;-68
2021/10/08 03:05:11;;;;;;;93.88;10.77;;;;;;;;;;5035000;28;20158;-68
2021/10/08 03:07:36;;;;;;;79.60;9.70;;;;;;;;;;5050849;28;20029;-68
2021/10/08 03:10:07;;;;;;;71.57;10.38;;;;;;;;;;5050581;28;20025;-69
2021/10/08 03:12:33;;;;;;;66.00;10.18;;;;;;;;;;5051025;28;20033;-69
2021/10/08 03:14:58;;;;;;;76.40;10.45;;;;;;;;;;5039663;28;20029;-69
2021/10/08 03:17:24;;;;;;;52.03;8.70;;;;;;;;;;5050247;28;20079;-69
2021/10/08 03:19:49;;;;;;;123.65;9.35;;;;;;;;;;5049002;28;20454;-68
2021/10/08 03:22:15;;;;;;;73.30;8.80;;;;;;;;;;5038797;28;20465;-68
2021/10/08 03:24:40;;;;;;;78.82;9.35;;;;;;;;;;5029720;28;20025;-69
2021/10/08 03:27:06;;;;;;;71.43;9.43;;;;;;;;;;5049649;28;20033;-68
2021/10/08 03:29:32;;;;;;;102.20;10.30;;;;;;;;;;5050356;28;20032;-68
2021/10/08 03:31:57;;;;;;;127.88;9.13;;;;;;;;;;5050852;28;20049;-68
2021/10/08 03:34:22;;;;;;;82.18;8.95;;;;;;;;;;5055925;28;20684;-68
2021/10/08 03:36:53;;;;;;;65.55;9.23;;;;;;;;;;5045188;28;20029;-68
2021/10/08 03:39:22;;;;;;;73.15;9.55;;;;;;;;;;5050647;28;20469;-68
2021/10/08 03:41:48;;;;;;;47.80;9.32;;;;;;;;;;5050409;28;20021;-69
2021/10/08 03:44:15;;;;;;;41.03;8.48;;;;;;;;;;5050022;28;20033;-70
2021/10/08 03:46:45;;;;;;;70.90;9.25;;;;;;;;;;5054311;28;20036;-68
2021/10/08 03:49:13;;;;;;;48.55;9.20;;;;;;;;;;5054222;28;20043;-69
2021/10/08 03:51:39;;;;;;;94.30;8.27;;;;;;;;;;5055016;28;20318;-69
2021/10/08 03:54:05;;;;;;;92.55;9.68;;;;;;;;;;5051750;28;20029;-69
2021/10/08 03:56:31;;;;;;;53.25;8.18;;;;;;;;;;5054404;28;20079;-68
2021/10/08 03:58:59;;;;;;;67.80;7.10;;;;;;;;;;5040551;28;20073;-68
2021/10/08 04:01:25;;;;;;;43.10;6.20;;;;;;;;;;5046870;28;20049;-68
2021/10/08 04:03:51;;;;;;;54.00;7.10;;;;;;;;;;5053326;28;20112;-68
2021/10/08 04:06:17;;;;;;;35.55;7.38;;;;;;;;;;5048613;28;20159;-68
2021/10/08 04:08:43;;;;;;;37.00;7.82;;;;;;;;;;5043514;28;20116;-68
2021/10/08 04:11:10;;;;;;;49.30;6.70;;;;;;;;;;5052487;28;20056;-68
2021/10/08 04:13:36;;;;;;;66.07;6.40;;;;;;;;;;5054070;28;20086;-68
2021/10/08 04:16:01;;;;;;;68.88;6.25;;;;;;;;;;5051677;28;20045;-68
2021/10/08 04:18:27;;;;;;;36.78;6.13;;;;;;;;;;5053884;28;20053;-68
2021/10/08 04:20:52;;;;;;;54.53;5.97;;;;;;;;;;5044585;28;20526;-68
2021/10/08 04:23:19;;;;;;;33.03;5.30;;;;;;;;;;5053229;28;20355;-71
2021/10/08 04:25:45;;;;;;;39.97;5.43;;;;;;;;;;5050038;28;20102;-68
2021/10/08 04:28:11;;;;;;;50.97;7.10;;;;;;;;;;5053617;28;20033;-68
2021/10/08 04:30:37;;;;;;;38.78;5.50;;;;;;;;;;5047983;28;20373;-68
2021/10/08 04:33:12;;;;;;;45.45;5.45;;;;;;;;;;5053439;28;20028;-68
2021/10/08 04:35:37;;;;;;;38.97;5.85;;;;;;;;;;5052368;28;20036;-68
2021/10/08 04:38:03;;;;;;;65.72;6.05;;;;;;;;;;5048258;28;20025;-68
2021/10/08 04:40:28;;;;;;;43.75;5.80;;;;;;;;;;5052528;28;20059;-68
2021/10/08 04:42:53;;;;;;;41.13;5.85;;;;;;;;;;5052508;28;20377;-68
2021/10/08 04:45:19;;;;;;;32.35;5.70;;;;;;;;;;5052674;28;20020;-68
2021/10/08 04:47:45;;;;;;;63.08;6.18;;;;;;;;;;5051043;28;20033;-67
2021/10/08 04:50:10;;;;;;;67.80;6.68;;;;;;;;;;5051019;28;20573;-67
2021/10/08 04:52:36;;;;;;;62.00;6.57;;;;;;;;;;5048452;28;20044;-68
2021/10/08 04:55:01;;;;;;;56.30;6.93;;;;;;;;;;5043307;28;20500;-68
2021/10/08 04:57:26;;;;;;;43.65;5.95;;;;;;;;;;5048484;28;20021;-68
2021/10/08 04:59:52;;;;;;;30.08;5.75;;;;;;;;;;5051378;28;20049;-68
2021/10/08 05:02:17;;;;;;;18.80;5.90;;;;;;;;;;5042242;28;20424;-69
2021/10/08 05:04:43;;;;;;;30.65;6.10;;;;;;;;;;5039839;28;20060;-68
2021/10/08 05:07:08;;;;;;;39.03;7.05;;;;;;;;;;5048982;28;20020;-69
2021/10/08 05:09:34;;;;;;;33.92;6.30;;;;;;;;;;5053214;28;20037;-68
2021/10/08 05:11:59;;;;;;;41.10;6.80;;;;;;;;;;5051619;28;20369;-68
2021/10/08 05:14:25;;;;;;;44.92;6.97;;;;;;;;;;5047183;28;20074;-68
2021/10/08 05:16:50;;;;;;;36.08;6.32;;;;;;;;;;5051678;28;20028;-68
2021/10/08 05:19:16;;;;;;;26.75;7.70;;;;;;;;;;5050799;28;20039;-69
2021/10/08 05:21:42;;;;;;;16.50;7.07;;;;;;;;;;5044270;28;20068;-69
2021/10/08 05:24:07;;;;;;;18.73;7.15;;;;;;;;;;5047947;28;20048;-69
2021/10/08 05:26:33;;;;;;;20.70;6.40;;;;;;;;;;5051192;28;20110;-69
2021/10/08 05:28:58;;;;;;;33.78;8.75;;;;;;;;;;5051770;28;20035;-69
2021/10/08 05:31:24;;;;;;;21.95;6.68;;;;;;;;;;5052728;28;20492;-69
2021/10/08 05:33:49;;;;;;;20.13;7.03;;;;;;;;;;5051833;28;20116;-69
2021/10/08 05:36:17;;;;;;;22.10;6.43;;;;;;;;;;5051649;28;20388;-72
2021/10/08 05:38:42;;;;;;;34.90;7.35;;;;;;;;;;5052544;28;20025;-68
2021/10/08 05:41:07;;;;;;;24.00;7.50;;;;;;;;;;5049522;28;20025;-69
2021/10/08 05:43:33;;;;;;;17.23;7.13;;;;;;;;;;5046201;28;20381;-68
2021/10/08 05:45:58;;;;;;;21.63;7.65;;;;;;;;;;5052260;28;20032;-68
2021/10/08 05:48:24;;;;;;;43.55;7.32;;;;;;;;;;5053278;28;20036;-68
2021/10/08 05:50:50;;;;;;;23.40;7.95;;;;;;;;;;5046171;28;20080;-68
2021/10/08 05:53:15;;;;;;;27.23;7.47;;;;;;;;;;5051565;28;20465;-68
2021/10/08 05:55:41;;;;;;;22.25;7.53;;;;;;;;;;5045624;28;20025;-69
2021/10/08 05:58:06;;;;;;;25.52;8.32;;;;;;;;;;5044991;28;20086;-69
2021/10/08 06:00:33;;;;;;;28.80;9.07;;;;;;;;;;5047117;28;20400;-69
2021/10/08 06:03:02;;;;;;;24.52;7.68;;;;;;;;;;5037381;28;20385;-69
2021/10/08 06:05:27;;;;;;;20.33;7.75;;;;;;;;;;5043068;28;20116;-69
2021/10/08 06:07:53;;;;;;;22.55;7.93;;;;;;;;;;5047114;28;20104;-69
2021/10/08 06:10:18;;;;;;;19.35;7.78;;;;;;;;;;5049846;28;20079;-69
2021/10/08 06:12:44;;;;;;;18.88;8.73;;;;;;;;;;5048077;28;20067;-68
2021/10/08 06:15:10;;;;;;;34.58;8.98;;;;;;;;;;5050438;28;20037;-69
2021/10/08 06:17:35;;;;;;;24.80;8.57;;;;;;;;;;5043451;28;20036;-68
2021/10/08 06:20:01;;;;;;;23.45;8.30;;;;;;;;;;5041158;28;20033;-68
2021/10/08 06:22:26;;;;;;;20.00;9.13;;;;;;;;;;5046565;28;20033;-68
2021/10/08 06:24:52;;;;;;;54.17;9.85;;;;;;;;;;5047942;28;20358;-68
2021/10/08 06:27:17;;;;;;;20.88;8.88;;;;;;;;;;5046917;28;20017;-68
2021/10/08 06:29:42;;;;;;;26.63;9.18;;;;;;;;;;5045950;28;20365;-67
2021/10/08 06:32:08;;;;;;;21.80;8.50;;;;;;;;;;5042554;28;20429;-68
2021/10/08 06:34:34;;;;;;;38.33;8.95;;;;;;;;;;5047331;28;20481;-68
2021/10/08 06:36:59;;;;;;;20.40;8.50;;;;;;;;;;5051106;28;20028;-68
2021/10/08 06:39:25;;;;;;;24.60;8.32;;;;;;;;;;5059519;28;20040;-68
2021/10/08 06:41:51;;;;;;;25.88;8.50;;;;;;;;;;5052079;28;20569;-68
2021/10/08 06:44:17;;;;;;;28.92;8.40;;;;;;;;;;5050481;28;20457;-68
2021/10/08 06:46:43;;;;;;;24.05;8.27;;;;;;;;;;5051059;28;20035;-68
2021/10/08 06:49:10;;;;;;;32.03;8.07;;;;;;;;;;5049269;28;20024;-68
2021/10/08 06:51:36;;;;;;;43.00;8.27;;;;;;;;;;5049935;28;20104;-68
2021/10/08 06:54:01;;;;;;;20.15;8.02;;;;;;;;;;5047264;28;20120;-68
2021/10/08 06:56:29;;;;;;;30.85;8.45;;;;;;;;;;5044721;28;20448;-68
2021/10/08 06:58:55;;;;;;;39.20;8.30;;;;;;;;;;5050521;28;20412;-68
2021/10/08 07:01:20;;;;;;;31.95;8.38;;;;;;;;;;5041224;28;20033;-68
2021/10/08 07:03:45;;;;;;;18.23;7.88;;;;;;;;;;5036850;28;20049;-68
2021/10/08 07:06:11;;;;;;;39.03;8.13;;;;;;;;;;5032475;28;20481;-68
2021/10/08 07:08:37;;;;;;;32.15;8.05;;;;;;;;;;5050611;28;20064;-67
2021/10/08 07:11:02;;;;;;;38.67;8.43;;;;;;;;;;5050477;28;20076;-67
2021/10/08 07:13:28;;;;;;;27.13;8.48;;;;;;;;;;5050842;28;20107;-68
2021/10/08 07:15:53;;;;;;;20.80;8.57;;;;;;;;;;5044368;28;20018;-68
2021/10/08 07:18:24;;;;;;;21.33;7.72;;;;;;;;;;5030878;28;20037;-68
2021/10/08 07:20:50;;;;;;;16.65;7.78;;;;;;;;;;5038262;28;20025;-68
2021/10/08 07:23:16;;;;;;;19.13;9.50;;;;;;;;;;5047859;28;20091;-68
2021/10/08 07:25:42;;;;;;;23.17;8.13;;;;;;;;;;5039403;28;20116;-68
2021/10/08 07:28:07;;;;;;;18.75;7.75;;;;;;;;;;5047486;28;20063;-68
2021/10/08 07:30:33;;;;;;;29.40;8.20;;;;;;;;;;5040992;28;20314;-67
2021/10/08 07:32:58;;;;;;;14.52;7.53;;;;;;;;;;5050550;28;20072;-68
2021/10/08 07:35:24;;;;;;;22.75;8.10;;;;;;;;;;5050609;28;20021;-68
2021/10/08 07:37:49;;;;;;;21.02;7.57;;;;;;;;;;5050649;28;20032;-68
2021/10/08 07:40:15;;;;;;;24.92;7.78;;;;;;;;;;5057228;28;20067;-68
2021/10/08 07:42:42;;;;;;;16.30;7.43;;;;;;;;;;5050690;28;20127;-68
2021/10/08 07:45:09;;;;;;;17.25;7.25;;;;;;;;;;5050725;28;20396;-68
2021/10/08 07:47:35;;;;;;;13.55;7.32;;;;;;;;;;5050112;28;20063;-68
2021/10/08 07:50:01;;;;;;;25.17;6.63;;;;;;;;;;5050597;28;20064;-68
2021/10/08 07:52:26;;;;;;;23.83;7.28;;;;;;;;;;5049323;28;20486;-68
2021/10/08 07:54:52;;;;;;;26.38;7.25;;;;;;;;;;5050580;28;20033;-68
2021/10/08 07:57:18;;;;;;;30.38;8.50;;;;;;;;;;5058351;28;20025;-68
2021/10/08 07:59:43;;;;;;;24.02;7.60;;;;;;;;;;5050398;28;20045;-68
2021/10/08 08:02:09;;;;;;;21.05;8.35;;;;;;;;;;5050586;28;20033;-70
2021/10/08 08:04:37;;;;;;;38.90;7.55;;;;;;;;;;5066200;28;20032;-69
2021/10/08 08:07:03;;;;;;;32.33;7.90;;;;;;;;;;5061965;28;20036;-68
2021/10/08 08:09:29;;;;;;;33.13;8.27;;;;;;;;;;5046915;28;20452;-67
2021/10/08 08:11:54;;;;;;;45.22;8.65;;;;;;;;;;5043980;28;20021;-67
2021/10/08 08:14:20;;;;;;;39.35;8.80;;;;;;;;;;5039339;28;20447;-67
2021/10/08 08:16:45;;;;;;;33.88;9.20;;;;;;;;;;5050176;28;20029;-68
2021/10/08 08:19:13;;;;;;;17.08;8.88;;;;;;;;;;5049224;28;20365;-68
2021/10/08 08:21:40;;;;;;;18.52;9.15;;;;;;;;;;5049884;28;20083;-68
2021/10/08 08:24:06;;;;;;;15.95;8.25;;;;;;;;;;5050787;28;20021;-68
2021/10/08 08:26:32;;;;;;;21.23;9.73;;;;;;;;;;5046878;28;20036;-68
2021/10/08 08:28:57;;;;;;;22.48;10.07;;;;;;;;;;5048904;28;20033;-68
2021/10/08 08:31:24;;;;;;;29.58;10.20;;;;;;;;;;5054012;28;20020;-69
2021/10/08 08:33:49;;;;;;;21.00;10.85;;;;;;;;;;5057394;28;20028;-68
2021/10/08 08:36:15;;;;;;;24.10;12.60;;;;;;;;;;5053098;28;20047;-68
2021/10/08 08:38:40;;;;;;;24.05;12.77;;;;;;;;;;5053246;28;20025;-69
2021/10/08 08:41:06;;;;;;;23.05;12.50;;;;;;;;;;5050149;28;20028;-68
2021/10/08 08:43:31;;;;;;;23.48;13.27;;;;;;;;;;5060814;28;20550;-68
2021/10/08 08:45:57;;;;;;;24.08;12.88;;;;;;;;;;5057737;28;20090;-68
2021/10/08 08:48:23;;;;;;;24.08;13.13;;;;;;;;;;5073431;28;20237;-68
2021/10/08 08:50:49;;;;;;;23.38;13.05;;;;;;;;;;5066882;28;20025;-68
2021/10/08 08:53:20;;;;;;;22.52;13.32;;;;;;;;;;5055538;28;20025;-68
2021/10/08 08:55:47;;;;;;;20.75;13.20;;;;;;;;;;5052465;28;20356;-68
2021/10/08 08:58:12;;;;;;;19.42;13.35;;;;;;;;;;5044760;28;20045;-69
2021/10/08 09:00:39;;;;;;;22.08;13.93;;;;;;;;;;5049958;28;20106;-68
2021/10/08 09:03:09;;;;;;;19.10;13.63;;;;;;;;;;5062723;28;20099;-68
2021/10/08 09:05:36;;;;;;;19.30;13.05;;;;;;;;;;5061279;28;20484;-68
2021/10/08 09:08:05;;;;;;;22.00;14.65;;;;;;;;;;5067565;28;20052;-68
2021/10/08 09:10:33;;;;;;;23.27;14.63;;;;;;;;;;5052435;28;20028;-68
2021/10/08 09:12:59;;;;;;;23.70;14.57;;;;;;;;;;5052673;28;20025;-69
2021/10/08 09:15:27;;;;;;;22.30;15.02;;;;;;;;;;5048468;28;20029;-68
2021/10/08 09:18:07;;;;;;;23.77;14.75;;;;;;;;;;5063136;28;20024;-68
2021/10/08 09:20:33;;;;;;;24.73;15.85;;;;;;;;;;5072902;28;20021;-68
2021/10/08 09:22:59;;;;;;;21.58;14.63;;;;;;;;;;5053955;28;20032;-68
2021/10/08 09:25:26;;;;;;;21.23;14.98;;;;;;;;;;5055307;28;20021;-68
2021/10/08 09:27:56;;;;;;;21.42;14.60;;;;;;;;;;5062691;28;20103;-68
2021/10/08 09:30:34;;;;;;;21.27;15.02;;;;;;;;;;5057547;28;20111;-68
2021/10/08 09:32:59;;;;;;;22.17;15.10;;;;;;;;;;5063089;28;20108;-68
2021/10/08 09:35:26;;;;;;;20.90;14.73;;;;;;;;;;5053617;28;20528;-69
2021/10/08 09:38:02;;;;;;;21.98;15.07;;;;;;;;;;5053131;28;20064;-68
2021/10/08 09:40:34;;;;;;;21.20;15.45;;;;;;;;;;5055175;28;20032;-68
2021/10/08 09:43:06;;;;;;;23.75;14.63;;;;;;;;;;5071792;28;20372;-68
2021/10/08 09:45:39;;;;;;;26.13;15.75;;;;;;;;;;5056498;28;20118;-68
2021/10/08 09:48:06;;;;;;;24.38;15.40;;;;;;;;;;5062684;28;20119;-68
2021/10/08 09:50:32;;;;;;;25.98;16.10;;;;;;;;;;5070127;28;20111;-68
2021/10/08 09:53:24;;;;;;;22.38;15.50;;;;;;;;;;5057290;28;20622;-68
2021/10/08 09:55:52;;;;;;;23.10;15.55;;;;;;;;;;5055508;28;20115;-68
2021/10/08 09:58:23;;;;;;;27.77;15.38;;;;;;;;;;5072128;28;20048;-68
2021/10/08 10:00:51;;;;;;;27.92;15.40;;;;;;;;;;5060110;28;20032;-68
2021/10/08 10:03:19;;;;;;;21.25;14.48;;;;;;;;;;5052394;28;20027;-68
2021/10/08 10:05:45;;;;;;;22.65;15.05;;;;;;;;;;5052083;28;20075;-68
2021/10/08 10:08:12;;;;;;;24.05;15.55;;;;;;;;;;5052311;28;20031;-68
2021/10/08 10:10:39;;;;;;;20.77;14.60;;;;;;;;;;5064808;28;20494;-68
2021/10/08 10:13:06;;;;;;;22.20;15.07;;;;;;;;;;5071168;28;20020;-68
2021/10/08 10:15:35;;;;;;;25.10;15.00;;;;;;;;;;5057320;28;20083;-68
2021/10/08 10:18:04;;;;;;;21.73;14.05;;;;;;;;;;5066377;28;20428;-68
2021/10/08 10:20:33;;;;;;;19.42;13.68;;;;;;;;;;5045105;28;20033;-68
2021/10/08 10:23:01;;;;;;;20.27;14.43;;;;;;;;;;5048635;28;20598;-68
2021/10/08 10:25:27;;;;;;;23.17;14.73;;;;;;;;;;5050503;28;20032;-69
2021/10/08 10:27:52;;;;;;;20.80;14.60;;;;;;;;;;5051556;28;20024;-68
2021/10/08 10:30:19;;;;;;;21.30;14.35;;;;;;;;;;5050765;28;20021;-69
2021/10/08 10:32:46;;;;;;;34.83;21.05;;;;;;;;;;5045240;28;20036;-68
2021/10/08 10:35:36;;;;;;;40.20;24.58;;;;;;;;;;5045212;28;20052;-69
2021/10/08 10:38:24;;;;;;;84.03;64.07;;;;;;;;;;5042151;28;20544;-68
2021/10/08 10:41:08;;;;;;;44.60;40.30;;;;;;;;;;5033699;28;20026;-68
2021/10/08 10:43:40;;;;;;;20.27;15.38;;;;;;;;;;5040067;28;20029;-68
2021/10/08 10:52:03;;;;;;;17.65;12.52;;;;;;;;;;5048710;28;20029;-68
2021/10/08 10:55:10;;;;;;;14.70;11.40;;;;;;;;;;5050344;28;20075;-68
2021/10/08 10:57:31;;;;;;;18.20;11.45;;;;;;;;;;5040296;28;20241;-68
2021/10/08 11:00:23;;;;;;;17.42;12.88;;;;;;;;;;5042881;28;20037;-67
2021/10/08 11:02:59;;;;;;;27.60;23.85;;;;;;;;;;5034183;28;20029;-68
2021/10/08 11:05:26;;;;;;;16.02;10.93;;;;;;;;;;5039400;28;20071;-67
2021/10/08 11:08:18;;;;;;;17.02;11.65;;;;;;;;;;5035537;28;20025;-68
2021/10/08 11:11:06;;;;;;;15.60;12.18;;;;;;;;;;5054438;28;20511;-67
2021/10/08 11:13:34;;;;;;;15.55;11.27;;;;;;;;;;5040531;28;20041;-67
2021/10/08 11:16:11;;;;;;;16.23;11.23;;;;;;;;;;5047936;28;20427;-67
2021/10/08 11:18:46;;;;;;;15.38;10.55;;;;;;;;;;5034972;28;20043;-68
2021/10/08 11:21:38;;;;;;;15.60;11.20;;;;;;;;;;5032063;28;20041;-68
2021/10/08 11:24:13;;;;;;;13.48;10.30;;;;;;;;;;5045100;28;20095;-68
2021/10/08 11:26:39;;;;;;;56.55;42.33;;;;;;;;;;5043396;28;20380;-68
2021/10/08 11:29:05;;;;;;;87.88;65.20;;;;;;;;;;5031123;28;20017;-68
2021/10/08 11:31:31;;;;;;;26.35;20.08;;;;;;;;;;5030819;28;20029;-68
2021/10/08 11:33:56;;;;;;;17.75;11.50;;;;;;;;;;5039597;28;20075;-68
2021/10/08 11:36:32;;;;;;;13.25;10.98;;;;;;;;;;5038325;28;20129;-68
2021/10/08 11:39:16;;;;;;;16.27;9.52;;;;;;;;;;5050054;28;20025;-67
2021/10/08 11:41:58;;;;;;;16.63;10.50;;;;;;;;;;5041399;28;20507;-69
2021/10/08 11:44:27;;;;;;;12.95;9.38;;;;;;;;;;5030804;28;20368;-67
2021/10/08 11:52:04;;;;;;;13.48;10.45;;;;;;;;;;5043739;28;20022;-68
2021/10/08 11:54:30;;;;;;;16.00;10.80;;;;;;;;;;5042619;28;20029;-68
2021/10/08 11:57:04;;;;;;;13.25;9.77;;;;;;;;;;5051223;28;20025;-69
2021/10/08 11:59:31;;;;;;;13.68;10.38;;;;;;;;;;5050291;28;20123;-69
2021/10/08 12:02:15;;;;;;;13.63;10.38;;;;;;;;;;5050363;28;20361;-69
2021/10/08 12:04:57;;;;;;;14.57;10.43;;;;;;;;;;5043850;28;20029;-68
2021/10/08 12:07:23;;;;;;;19.48;11.73;;;;;;;;;;5041881;28;20036;-68
2021/10/08 12:10:08;;;;;;;16.13;11.82;;;;;;;;;;5044048;28;20556;-68
2021/10/08 12:12:33;;;;;;;13.18;10.43;;;;;;;;;;5037989;28;20109;-68
2021/10/08 12:15:00;;;;;;;13.80;11.25;;;;;;;;;;5043546;28;20494;-68
2021/10/08 12:17:26;;;;;;;14.32;10.25;;;;;;;;;;5039542;28;20121;-68
2021/10/08 12:19:52;;;;;;;16.52;12.40;;;;;;;;;;5038026;28;20116;-68
2021/10/08 12:22:22;;;;;;;14.75;10.70;;;;;;;;;;5049427;28;20620;-69
2021/10/08 12:24:49;;;;;;;20.02;10.70;;;;;;;;;;5053720;28;20025;-68
2021/10/08 12:27:15;;;;;;;13.50;10.20;;;;;;;;;;5053964;28;20480;-69
2021/10/08 12:29:47;;;;;;;19.27;10.90;;;;;;;;;;5053967;28;20021;-68
2021/10/08 12:32:17;;;;;;;17.45;10.55;;;;;;;;;;5054351;28;20028;-69
2021/10/08 12:34:45;;;;;;;14.88;10.50;;;;;;;;;;5053487;28;20036;-68
2021/10/08 12:37:16;;;;;;;17.05;11.43;;;;;;;;;;5054204;28;20112;-68
2021/10/08 12:40:14;;;;;;;14.30;10.65;;;;;;;;;;5042812;28;20500;-68
2021/10/08 12:42:49;;;;;;;15.48;10.60;;;;;;;;;;5047497;28;20065;-68
2021/10/08 12:45:41;;;;;;;14.93;11.27;;;;;;;;;;5052978;28;20059;-68
2021/10/08 12:48:16;;;;;;;13.48;10.23;;;;;;;;;;5053990;28;20033;-68
2021/10/08 12:50:42;;;;;;;13.48;10.18;;;;;;;;;;5053751;28;20024;-68
2021/10/08 12:53:23;;;;;;;14.75;10.48;;;;;;;;;;5053420;28;20048;-68
2021/10/08 12:55:49;;;;;;;13.40;9.95;;;;;;;;;;5059491;28;20401;-68
2021/10/08 12:58:26;;;;;;;14.98;10.30;;;;;;;;;;5073555;28;20032;-68
2021/10/08 13:00:54;;;;;;;14.85;10.52;;;;;;;;;;5073280;28;20112;-68
2021/10/08 13:03:35;;;;;;;14.35;10.00;;;;;;;;;;5058450;28;20078;-68
2021/10/08 13:06:05;;;;;;;14.88;10.82;;;;;;;;;;5053501;28;20024;-68
2021/10/08 13:08:36;;;;;;;13.32;10.55;;;;;;;;;;5053291;28;20025;-68
2021/10/08 13:11:03;;;;;;;15.85;10.30;;;;;;;;;;5053335;28;20029;-68
2021/10/08 13:13:39;;;;;;;14.60;10.30;;;;;;;;;;5053068;28;20066;-69
2021/10/08 13:16:09;;;;;;;12.80;10.32;;;;;;;;;;5051144;28;20025;-69
2021/10/08 13:18:45;;;;;;;14.45;10.13;;;;;;;;;;5050746;28;20040;-69
2021/10/08 13:21:14;;;;;;;15.70;10.35;;;;;;;;;;5050795;28;20033;-69
2021/10/08 13:23:40;;;;;;;12.23;9.95;;;;;;;;;;5039403;28;20461;-69
2021/10/08 13:26:06;;;;;;;16.13;10.27;;;;;;;;;;5053108;28;20032;-69
2021/10/08 13:28:32;;;;;;;14.00;10.73;;;;;;;;;;5051603;28;20485;-69
2021/10/08 13:30:57;;;;;;;14.73;10.20;;;;;;;;;;5052049;28;20078;-69
2021/10/08 13:33:24;;;;;;;16.08;10.88;;;;;;;;;;5057420;28;20387;-69
2021/10/08 13:35:52;;;;;;;13.73;10.05;;;;;;;;;;5065013;28;20028;-69
2021/10/08 13:38:18;;;;;;;13.35;9.95;;;;;;;;;;5056388;28;20024;-69
2021/10/08 13:40:46;;;;;;;15.68;10.07;;;;;;;;;;5052064;28;20473;-69
2021/10/08 13:43:11;;;;;;;15.30;10.18;;;;;;;;;;5053699;28;20035;-68
2021/10/08 13:45:37;;;;;;;16.30;11.82;;;;;;;;;;5053048;28;20020;-68
2021/10/08 13:48:03;;;;;;;15.98;11.88;;;;;;;;;;5053454;28;20074;-68
2021/10/08 13:50:29;;;;;;;14.38;10.45;;;;;;;;;;5053652;28;20041;-68
2021/10/08 13:52:54;;;;;;;12.43;9.38;;;;;;;;;;5053197;28;20029;-69
2021/10/08 13:55:19;;;;;;;14.52;10.30;;;;;;;;;;5055540;28;20064;-68
2021/10/08 13:57:45;;;;;;;16.80;11.70;;;;;;;;;;5072503;28;20059;-68
2021/10/08 14:00:11;;;;;;;15.18;12.23;;;;;;;;;;5033215;28;20107;-68
2021/10/08 14:02:52;;;;;;;14.98;10.73;;;;;;;;;;5033143;28;20025;-68
2021/10/08 14:05:26;;;;;;;17.63;12.25;;;;;;;;;;5033254;28;20052;-68
2021/10/08 14:10:23;;;;;;;15.25;10.88;;;;;;;;;;5053166;28;20491;-68
2021/10/08 14:12:54;;;;;;;13.52;10.73;;;;;;;;;;5052743;28;20522;-68
2021/10/08 14:15:22;;;;;;;15.45;10.80;;;;;;;;;;5053059;28;20021;-68
2021/10/08 14:17:48;;;;;;;17.83;10.98;;;;;;;;;;5052221;28;20063;-68
2021/10/08 14:20:15;;;;;;;14.52;11.43;;;;;;;;;;5052894;28;20477;-68
2021/10/08 14:22:43;;;;;;;19.13;10.82;;;;;;;;;;5052622;28;20104;-68
2021/10/08 14:25:09;;;;;;;14.43;10.70;;;;;;;;;;5052929;28;20025;-68
2021/10/08 14:27:36;;;;;;;14.50;10.85;;;;;;;;;;5052570;28;20063;-69
2021/10/08 14:30:06;;;;;;;16.15;11.43;;;;;;;;;;5051751;28;20358;-69
2021/10/08 14:32:33;;;;;;;18.35;11.70;;;;;;;;;;5052825;28;20412;-68
2021/10/08 14:35:00;;;;;;;17.48;11.52;;;;;;;;;;5070947;28;20086;-68
2021/10/08 14:37:29;;;;;;;17.50;12.18;;;;;;;;;;5072530;28;20035;-68
2021/10/08 14:39:55;;;;;;;18.83;12.13;;;;;;;;;;5054094;28;20029;-68